sensor_id;sensor_type;location;lat;lon;timestamp;temperature;humidity
73133;DHT22;61320;52.008;4.530;2023-02-05T00:00:32;10.68;78.55
73133;DHT22;61320;52.008;4.530;2023-02-05T00:02:57;10.61;78.64
73133;DHT22;61320;52.008;4.530;2023-02-05T00:05:22;10.64;78.66
73133;DHT22;61320;52.008;4.530;2023-02-05T00:07:48;10.58;78.61
73133;DHT22;61320;52.008;4.530;2023-02-05T00:10:14;10.57;78.82
73133;DHT22;61320;52.008;4.530;2023-02-05T00:12:40;10.60;78.66
73133;DHT22;61320;52.008;4.530;2023-02-05T00:15:05;10.61;78.62
73133;DHT22;61320;52.008;4.530;2023-02-05T00:17:31;10.61;78.44
73133;DHT22;61320;52.008;4.530;2023-02-05T00:19:58;10.60;78.57
73133;DHT22;61320;52.008;4.530;2023-02-05T00:22:24;10.60;78.51
73133;DHT22;61320;52.008;4.530;2023-02-05T00:24:49;10.55;78.46
73133;DHT22;61320;52.008;4.530;2023-02-05T00:27:15;10.57;78.34
73133;DHT22;61320;52.008;4.530;2023-02-05T00:29:40;10.51;78.32
73133;DHT22;61320;52.008;4.530;2023-02-05T00:32:06;10.53;78.29
73133;DHT22;61320;52.008;4.530;2023-02-05T00:34:31;10.53;78.25
73133;DHT22;61320;52.008;4.530;2023-02-05T00:36:56;10.51;78.26
73133;DHT22;61320;52.008;4.530;2023-02-05T00:39:22;10.51;78.14
73133;DHT22;61320;52.008;4.530;2023-02-05T00:41:47;10.50;78.14
73133;DHT22;61320;52.008;4.530;2023-02-05T00:44:13;10.51;77.96
73133;DHT22;61320;52.008;4.530;2023-02-05T00:46:38;10.53;77.71
73133;DHT22;61320;52.008;4.530;2023-02-05T00:49:04;10.53;77.61
73133;DHT22;61320;52.008;4.530;2023-02-05T00:51:29;10.53;77.43
73133;DHT22;61320;52.008;4.530;2023-02-05T00:53:55;10.50;77.36
73133;DHT22;61320;52.008;4.530;2023-02-05T00:56:20;10.48;77.29
73133;DHT22;61320;52.008;4.530;2023-02-05T00:58:46;10.50;76.72
73133;DHT22;61320;52.008;4.530;2023-02-05T01:01:14;10.47;76.44
73133;DHT22;61320;52.008;4.530;2023-02-05T01:03:40;10.46;76.13
73133;DHT22;61320;52.008;4.530;2023-02-05T01:06:06;10.44;76.50
73133;DHT22;61320;52.008;4.530;2023-02-05T01:08:31;10.40;75.81
73133;DHT22;61320;52.008;4.530;2023-02-05T01:10:57;10.37;75.77
73133;DHT22;61320;52.008;4.530;2023-02-05T01:13:23;10.33;76.47
73133;DHT22;61320;52.008;4.530;2023-02-05T01:15:48;10.29;79.58
73133;DHT22;61320;52.008;4.530;2023-02-05T01:18:14;10.30;78.57
73133;DHT22;61320;52.008;4.530;2023-02-05T01:20:40;10.27;78.79
73133;DHT22;61320;52.008;4.530;2023-02-05T01:23:06;10.23;78.54
73133;DHT22;61320;52.008;4.530;2023-02-05T01:25:32;10.21;77.77
73133;DHT22;61320;52.008;4.530;2023-02-05T01:27:57;10.23;76.71
73133;DHT22;61320;52.008;4.530;2023-02-05T01:30:23;10.26;75.15
73133;DHT22;61320;52.008;4.530;2023-02-05T01:32:48;10.18;75.33
73133;DHT22;61320;52.008;4.530;2023-02-05T01:35:13;10.18;75.44
73133;DHT22;61320;52.008;4.530;2023-02-05T01:37:39;10.21;75.93
73133;DHT22;61320;52.008;4.530;2023-02-05T01:40:05;10.18;77.13
73133;DHT22;61320;52.008;4.530;2023-02-05T01:42:31;10.16;76.98
73133;DHT22;61320;52.008;4.530;2023-02-05T01:47:44;10.13;76.03
73133;DHT22;61320;52.008;4.530;2023-02-05T01:50:10;10.18;74.69
73133;DHT22;61320;52.008;4.530;2023-02-05T01:52:35;10.14;74.65
73133;DHT22;61320;52.008;4.530;2023-02-05T01:55:01;10.06;75.26
73133;DHT22;61320;52.008;4.530;2023-02-05T01:57:28;10.07;75.09
73133;DHT22;61320;52.008;4.530;2023-02-05T01:59:54;10.13;74.73
73133;DHT22;61320;52.008;4.530;2023-02-05T02:02:19;10.10;74.73
73133;DHT22;61320;52.008;4.530;2023-02-05T02:04:56;10.05;74.87
73133;DHT22;61320;52.008;4.530;2023-02-05T02:07:24;10.05;75.31
73133;DHT22;61320;52.008;4.530;2023-02-05T02:09:52;10.06;75.16
73133;DHT22;61320;52.008;4.530;2023-02-05T02:12:22;10.05;75.02
73133;DHT22;61320;52.008;4.530;2023-02-05T02:14:54;10.06;74.78
73133;DHT22;61320;52.008;4.530;2023-02-05T02:17:21;10.02;74.90
73133;DHT22;61320;52.008;4.530;2023-02-05T02:25:28;10.05;74.27
73133;DHT22;61320;52.008;4.530;2023-02-05T02:28:33;9.92;75.33
73133;DHT22;61320;52.008;4.530;2023-02-05T02:31:08;9.90;75.59
73133;DHT22;61320;52.008;4.530;2023-02-05T02:36:29;9.92;75.88
73133;DHT22;61320;52.008;4.530;2023-02-05T02:39:21;9.96;75.53
73133;DHT22;61320;52.008;4.530;2023-02-05T02:42:05;9.97;75.66
73133;DHT22;61320;52.008;4.530;2023-02-05T02:47:30;9.93;76.15
73133;DHT22;61320;52.008;4.530;2023-02-05T02:50:04;9.96;76.06
73133;DHT22;61320;52.008;4.530;2023-02-05T02:52:36;9.99;76.07
73133;DHT22;61320;52.008;4.530;2023-02-05T02:55:09;10.00;76.30
73133;DHT22;61320;52.008;4.530;2023-02-05T02:57:39;9.99;76.27
73133;DHT22;61320;52.008;4.530;2023-02-05T03:00:13;10.03;76.21
73133;DHT22;61320;52.008;4.530;2023-02-05T03:02:44;9.99;76.32
73133;DHT22;61320;52.008;4.530;2023-02-05T03:05:16;10.02;76.39
73133;DHT22;61320;52.008;4.530;2023-02-05T03:07:48;10.03;76.40
73133;DHT22;61320;52.008;4.530;2023-02-05T03:12:41;10.02;76.71
73133;DHT22;61320;52.008;4.530;2023-02-05T03:15:07;10.05;76.70
73133;DHT22;61320;52.008;4.530;2023-02-05T03:17:33;10.09;76.86
73133;DHT22;61320;52.008;4.530;2023-02-05T03:20:30;10.12;76.78
73133;DHT22;61320;52.008;4.530;2023-02-05T03:22:54;10.10;77.05
73133;DHT22;61320;52.008;4.530;2023-02-05T03:25:21;10.18;77.30
73133;DHT22;61320;52.008;4.530;2023-02-05T03:27:51;10.17;77.58
73133;DHT22;61320;52.008;4.530;2023-02-05T03:30:17;10.14;78.03
73133;DHT22;61320;52.008;4.530;2023-02-05T03:38:48;10.02;78.85
73133;DHT22;61320;52.008;4.530;2023-02-05T03:43:48;10.02;79.91
73133;DHT22;61320;52.008;4.530;2023-02-05T03:46:40;9.96;80.38
73133;DHT22;61320;52.008;4.530;2023-02-05T03:52:15;9.93;81.01
73133;DHT22;61320;52.008;4.530;2023-02-05T03:54:50;9.97;81.11
73133;DHT22;61320;52.008;4.530;2023-02-05T03:57:23;9.92;81.25
73133;DHT22;61320;52.008;4.530;2023-02-05T03:59:50;9.88;81.57
73133;DHT22;61320;52.008;4.530;2023-02-05T04:02:17;9.86;81.68
73133;DHT22;61320;52.008;4.530;2023-02-05T04:04:44;9.82;81.83
73133;DHT22;61320;52.008;4.530;2023-02-05T04:07:10;9.78;82.48
73133;DHT22;61320;52.008;4.530;2023-02-05T04:09:35;9.76;83.23
73133;DHT22;61320;52.008;4.530;2023-02-05T04:12:01;9.68;83.81
73133;DHT22;61320;52.008;4.530;2023-02-05T04:14:26;9.69;84.40
73133;DHT22;61320;52.008;4.530;2023-02-05T04:16:52;9.67;84.73
73133;DHT22;61320;52.008;4.530;2023-02-05T04:19:17;9.62;85.26
73133;DHT22;61320;52.008;4.530;2023-02-05T04:21:43;9.57;85.44
73133;DHT22;61320;52.008;4.530;2023-02-05T04:24:08;9.55;85.16
73133;DHT22;61320;52.008;4.530;2023-02-05T04:26:34;9.51;85.14
73133;DHT22;61320;52.008;4.530;2023-02-05T04:28:59;9.51;85.32
73133;DHT22;61320;52.008;4.530;2023-02-05T04:31:25;9.48;84.96
73133;DHT22;61320;52.008;4.530;2023-02-05T04:33:50;9.47;84.94
73133;DHT22;61320;52.008;4.530;2023-02-05T04:36:16;9.45;84.92
73133;DHT22;61320;52.008;4.530;2023-02-05T04:38:41;9.44;84.11
73133;DHT22;61320;52.008;4.530;2023-02-05T04:41:07;9.37;84.44
73133;DHT22;61320;52.008;4.530;2023-02-05T04:43:33;9.37;84.22
73133;DHT22;61320;52.008;4.530;2023-02-05T04:46:06;9.35;84.12
73133;DHT22;61320;52.008;4.530;2023-02-05T04:48:33;9.35;83.89
73133;DHT22;61320;52.008;4.530;2023-02-05T04:50:59;9.31;83.83
73133;DHT22;61320;52.008;4.530;2023-02-05T04:53:24;9.30;83.65
73133;DHT22;61320;52.008;4.530;2023-02-05T04:55:50;9.27;83.83
73133;DHT22;61320;52.008;4.530;2023-02-05T04:58:15;9.27;83.43
73133;DHT22;61320;52.008;4.530;2023-02-05T05:00:41;9.17;83.34
73133;DHT22;61320;52.008;4.530;2023-02-05T05:03:06;9.14;83.40
73133;DHT22;61320;52.008;4.530;2023-02-05T05:05:34;9.14;83.35
73133;DHT22;61320;52.008;4.530;2023-02-05T05:08:00;9.13;83.38
73133;DHT22;61320;52.008;4.530;2023-02-05T05:10:26;9.13;83.26
73133;DHT22;61320;52.008;4.530;2023-02-05T05:12:51;9.06;82.99
73133;DHT22;61320;52.008;4.530;2023-02-05T05:15:20;8.97;83.03
73133;DHT22;61320;52.008;4.530;2023-02-05T05:17:46;8.94;83.00
73133;DHT22;61320;52.008;4.530;2023-02-05T05:20:11;8.89;82.99
73133;DHT22;61320;52.008;4.530;2023-02-05T05:22:37;8.86;82.72
73133;DHT22;61320;52.008;4.530;2023-02-05T05:25:02;8.77;82.83
73133;DHT22;61320;52.008;4.530;2023-02-05T05:27:28;8.70;82.63
73133;DHT22;61320;52.008;4.530;2023-02-05T05:29:53;8.62;82.68
73133;DHT22;61320;52.008;4.530;2023-02-05T05:32:19;8.53;82.14
73133;DHT22;61320;52.008;4.530;2023-02-05T05:34:44;8.46;82.58
73133;DHT22;61320;52.008;4.530;2023-02-05T05:37:10;8.41;82.38
73133;DHT22;61320;52.008;4.530;2023-02-05T05:39:35;8.35;82.01
73133;DHT22;61320;52.008;4.530;2023-02-05T05:42:19;8.21;82.08
73133;DHT22;61320;52.008;4.530;2023-02-05T05:45:04;8.17;82.31
73133;DHT22;61320;52.008;4.530;2023-02-05T05:47:29;8.12;82.13
73133;DHT22;61320;52.008;4.530;2023-02-05T05:49:54;8.07;82.02
73133;DHT22;61320;52.008;4.530;2023-02-05T05:52:20;8.01;82.36
73133;DHT22;61320;52.008;4.530;2023-02-05T05:54:45;8.01;82.51
73133;DHT22;61320;52.008;4.530;2023-02-05T05:57:11;8.05;82.78
73133;DHT22;61320;52.008;4.530;2023-02-05T05:59:36;8.04;82.05
73133;DHT22;61320;52.008;4.530;2023-02-05T06:02:03;8.01;82.29
73133;DHT22;61320;52.008;4.530;2023-02-05T06:04:29;8.01;82.19
73133;DHT22;61320;52.008;4.530;2023-02-05T06:06:54;7.97;82.61
73133;DHT22;61320;52.008;4.530;2023-02-05T06:09:20;8.02;82.68
73133;DHT22;61320;52.008;4.530;2023-02-05T06:11:49;8.02;82.59
73133;DHT22;61320;52.008;4.530;2023-02-05T06:14:14;8.07;82.19
73133;DHT22;61320;52.008;4.530;2023-02-05T06:16:40;8.05;81.77
73133;DHT22;61320;52.008;4.530;2023-02-05T06:19:05;8.01;82.30
73133;DHT22;61320;52.008;4.530;2023-02-05T06:21:31;8.02;82.08
73133;DHT22;61320;52.008;4.530;2023-02-05T06:23:56;8.02;82.27
73133;DHT22;61320;52.008;4.530;2023-02-05T06:26:22;8.05;81.71
73133;DHT22;61320;52.008;4.530;2023-02-05T06:28:47;8.02;82.13
73133;DHT22;61320;52.008;4.530;2023-02-05T06:31:13;8.02;82.35
73133;DHT22;61320;52.008;4.530;2023-02-05T06:33:38;8.07;82.35
73133;DHT22;61320;52.008;4.530;2023-02-05T06:36:04;8.10;82.27
73133;DHT22;61320;52.008;4.530;2023-02-05T06:38:30;8.05;82.05
73133;DHT22;61320;52.008;4.530;2023-02-05T06:40:55;8.05;81.86
73133;DHT22;61320;52.008;4.530;2023-02-05T06:43:21;8.04;82.11
73133;DHT22;61320;52.008;4.530;2023-02-05T06:45:46;8.07;82.03
73133;DHT22;61320;52.008;4.530;2023-02-05T06:48:12;8.08;81.72
73133;DHT22;61320;52.008;4.530;2023-02-05T06:50:37;8.08;81.57
73133;DHT22;61320;52.008;4.530;2023-02-05T06:53:03;8.07;81.65
73133;DHT22;61320;52.008;4.530;2023-02-05T06:55:28;8.05;81.53
73133;DHT22;61320;52.008;4.530;2023-02-05T06:57:54;8.05;81.80
73133;DHT22;61320;52.008;4.530;2023-02-05T07:00:20;8.05;81.28
73133;DHT22;61320;52.008;4.530;2023-02-05T07:02:45;8.04;81.55
73133;DHT22;61320;52.008;4.530;2023-02-05T07:05:14;8.07;81.63
73133;DHT22;61320;52.008;4.530;2023-02-05T07:07:39;8.10;81.28
73133;DHT22;61320;52.008;4.530;2023-02-05T07:10:05;8.10;81.39
73133;DHT22;61320;52.008;4.530;2023-02-05T07:12:31;8.12;81.41
73133;DHT22;61320;52.008;4.530;2023-02-05T07:14:56;8.15;81.18
73133;DHT22;61320;52.008;4.530;2023-02-05T07:17:21;8.17;81.33
73133;DHT22;61320;52.008;4.530;2023-02-05T07:19:47;8.15;81.00
73133;DHT22;61320;52.008;4.530;2023-02-05T07:22:13;8.12;80.37
73133;DHT22;61320;52.008;4.530;2023-02-05T07:24:39;8.07;80.13
73133;DHT22;61320;52.008;4.530;2023-02-05T07:27:05;8.04;80.72
73133;DHT22;61320;52.008;4.530;2023-02-05T07:29:30;8.07;81.06
73133;DHT22;61320;52.008;4.530;2023-02-05T07:31:55;8.10;81.17
73133;DHT22;61320;52.008;4.530;2023-02-05T07:34:21;8.17;81.47
73133;DHT22;61320;52.008;4.530;2023-02-05T07:36:51;8.17;81.09
73133;DHT22;61320;52.008;4.530;2023-02-05T07:39:17;8.20;81.24
73133;DHT22;61320;52.008;4.530;2023-02-05T07:41:42;8.22;81.09
73133;DHT22;61320;52.008;4.530;2023-02-05T07:44:08;8.22;80.32
73133;DHT22;61320;52.008;4.530;2023-02-05T07:46:33;8.24;80.54
73133;DHT22;61320;52.008;4.530;2023-02-05T07:48:59;8.25;80.56
73133;DHT22;61320;52.008;4.530;2023-02-05T07:51:24;8.32;80.49
73133;DHT22;61320;52.008;4.530;2023-02-05T07:53:50;8.32;80.81
73133;DHT22;61320;52.008;4.530;2023-02-05T07:56:16;8.32;80.08
73133;DHT22;61320;52.008;4.530;2023-02-05T07:58:44;8.32;80.04
73133;DHT22;61320;52.008;4.530;2023-02-05T08:01:09;8.32;80.39
73133;DHT22;61320;52.008;4.530;2023-02-05T08:03:35;8.39;80.80
73133;DHT22;61320;52.008;4.530;2023-02-05T08:06:05;8.45;80.13
73133;DHT22;61320;52.008;4.530;2023-02-05T08:08:31;8.52;80.25
73133;DHT22;61320;52.008;4.530;2023-02-05T08:11:02;8.56;80.41
73133;DHT22;61320;52.008;4.530;2023-02-05T08:13:29;8.62;80.32
73133;DHT22;61320;52.008;4.530;2023-02-05T08:15:54;8.69;80.29
73133;DHT22;61320;52.008;4.530;2023-02-05T08:18:20;8.69;79.66
73133;DHT22;61320;52.008;4.530;2023-02-05T08:20:46;8.70;79.34
73133;DHT22;61320;52.008;4.530;2023-02-05T08:23:11;8.68;79.06
73133;DHT22;61320;52.008;4.530;2023-02-05T08:25:38;8.66;78.92
73133;DHT22;61320;52.008;4.530;2023-02-05T08:28:04;8.59;78.52
73133;DHT22;61320;52.008;4.530;2023-02-05T08:30:30;8.56;78.80
73133;DHT22;61320;52.008;4.530;2023-02-05T08:32:55;8.58;78.63
73133;DHT22;61320;52.008;4.530;2023-02-05T08:35:21;8.60;78.74
73133;DHT22;61320;52.008;4.530;2023-02-05T08:37:46;8.65;79.21
73133;DHT22;61320;52.008;4.530;2023-02-05T08:40:12;8.70;78.36
73133;DHT22;61320;52.008;4.530;2023-02-05T08:42:37;8.70;78.33
73133;DHT22;61320;52.008;4.530;2023-02-05T08:45:03;8.66;77.98
73133;DHT22;61320;52.008;4.530;2023-02-05T08:47:35;8.73;78.87
73133;DHT22;61320;52.008;4.530;2023-02-05T08:50:04;8.79;77.96
73133;DHT22;61320;52.008;4.530;2023-02-05T08:52:30;8.76;78.07
73133;DHT22;61320;52.008;4.530;2023-02-05T08:54:56;8.76;78.19
73133;DHT22;61320;52.008;4.530;2023-02-05T08:57:26;8.77;78.11
73133;DHT22;61320;52.008;4.530;2023-02-05T08:59:51;8.81;77.66
73133;DHT22;61320;52.008;4.530;2023-02-05T09:02:17;8.81;77.83
73133;DHT22;61320;52.008;4.530;2023-02-05T09:04:42;8.87;78.45
73133;DHT22;61320;52.008;4.530;2023-02-05T09:07:07;8.93;78.09
73133;DHT22;61320;52.008;4.530;2023-02-05T09:09:33;9.03;77.81
73133;DHT22;61320;52.008;4.530;2023-02-05T09:12:00;9.10;76.57
73133;DHT22;61320;52.008;4.530;2023-02-05T09:14:25;9.08;77.65
73133;DHT22;61320;52.008;4.530;2023-02-05T09:16:51;9.11;77.39
73133;DHT22;61320;52.008;4.530;2023-02-05T09:19:16;9.17;76.90
73133;DHT22;61320;52.008;4.530;2023-02-05T09:21:42;9.16;75.33
73133;DHT22;61320;52.008;4.530;2023-02-05T09:24:07;9.14;76.60
73133;DHT22;61320;52.008;4.530;2023-02-05T09:26:33;9.23;76.35
73133;DHT22;61320;52.008;4.530;2023-02-05T09:28:58;9.26;76.16
73133;DHT22;61320;52.008;4.530;2023-02-05T09:31:24;9.28;75.79
73133;DHT22;61320;52.008;4.530;2023-02-05T09:33:49;9.37;76.67
73133;DHT22;61320;52.008;4.530;2023-02-05T09:36:20;9.44;76.06
73133;DHT22;61320;52.008;4.530;2023-02-05T09:38:46;9.47;76.00
73133;DHT22;61320;52.008;4.530;2023-02-05T09:43:56;9.47;74.85
73133;DHT22;61320;52.008;4.530;2023-02-05T09:47:18;9.47;75.66
73133;DHT22;61320;52.008;4.530;2023-02-05T09:49:31;9.51;75.45
73133;DHT22;61320;52.008;4.530;2023-02-05T09:52:03;9.68;75.40
73133;DHT22;61320;52.008;4.530;2023-02-05T09:54:39;9.85;75.16
73133;DHT22;61320;52.008;4.530;2023-02-05T09:57:13;10.05;74.55
73133;DHT22;61320;52.008;4.530;2023-02-05T09:59:44;10.14;74.75
73133;DHT22;61320;52.008;4.530;2023-02-05T10:02:38;10.30;73.57
73133;DHT22;61320;52.008;4.530;2023-02-05T10:05:13;10.34;72.66
73133;DHT22;61320;52.008;4.530;2023-02-05T10:07:46;10.33;72.74
73133;DHT22;61320;52.008;4.530;2023-02-05T10:18:19;10.38;71.39
73133;DHT22;61320;52.008;4.530;2023-02-05T10:26:11;10.48;71.00
73133;DHT22;61320;52.008;4.530;2023-02-05T10:34:01;10.36;71.67
73133;DHT22;61320;52.008;4.530;2023-02-05T10:36:28;10.33;71.18
73133;DHT22;61320;52.008;4.530;2023-02-05T10:38:55;10.26;70.88
73133;DHT22;61320;52.008;4.530;2023-02-05T10:46:40;10.23;71.98
73133;DHT22;61320;52.008;4.530;2023-02-05T10:49:30;10.29;71.62
73133;DHT22;61320;52.008;4.530;2023-02-05T10:51:56;10.36;71.76
73133;DHT22;61320;52.008;4.530;2023-02-05T10:54:27;10.40;71.04
73133;DHT22;61320;52.008;4.530;2023-02-05T10:56:55;10.51;72.26
73133;DHT22;61320;52.008;4.530;2023-02-05T10:59:37;10.55;69.85
73133;DHT22;61320;52.008;4.530;2023-02-05T11:02:08;10.60;69.75
73133;DHT22;61320;52.008;4.530;2023-02-05T11:04:41;10.58;69.58
73133;DHT22;61320;52.008;4.530;2023-02-05T11:07:18;10.61;69.54
73133;DHT22;61320;52.008;4.530;2023-02-05T11:09:44;10.64;69.94
73133;DHT22;61320;52.008;4.530;2023-02-05T11:12:28;10.64;70.10
73133;DHT22;61320;52.008;4.530;2023-02-05T11:14:58;10.63;69.15
73133;DHT22;61320;52.008;4.530;2023-02-05T11:17:37;10.63;69.52
73133;DHT22;61320;52.008;4.530;2023-02-05T11:20:25;10.61;68.68
73133;DHT22;61320;52.008;4.530;2023-02-05T11:23:17;10.58;69.45
73133;DHT22;61320;52.008;4.530;2023-02-05T11:26:07;10.60;69.00
73133;DHT22;61320;52.008;4.530;2023-02-05T11:28:35;10.65;67.66
73133;DHT22;61320;52.008;4.530;2023-02-05T11:33:50;10.72;67.13
73133;DHT22;61320;52.008;4.530;2023-02-05T11:36:20;10.64;65.95
73133;DHT22;61320;52.008;4.530;2023-02-05T11:41:31;10.68;66.80
73133;DHT22;61320;52.008;4.530;2023-02-05T11:44:19;10.68;66.84
73133;DHT22;61320;52.008;4.530;2023-02-05T11:46:46;10.69;68.07
73133;DHT22;61320;52.008;4.530;2023-02-05T11:49:27;10.74;66.96
73133;DHT22;61320;52.008;4.530;2023-02-05T11:51:55;10.78;67.59
73133;DHT22;61320;52.008;4.530;2023-02-05T11:54:27;11.01;66.56
73133;DHT22;61320;52.008;4.530;2023-02-05T11:59:25;11.02;66.36
73133;DHT22;61320;52.008;4.530;2023-02-05T12:01:50;11.13;65.91
73133;DHT22;61320;52.008;4.530;2023-02-05T12:04:19;11.05;66.90
73133;DHT22;61320;52.008;4.530;2023-02-05T12:06:55;11.04;66.51
73133;DHT22;61320;52.008;4.530;2023-02-05T12:09:24;11.15;66.21
73133;DHT22;61320;52.008;4.530;2023-02-05T12:17:48;11.18;64.90
73133;DHT22;61320;52.008;4.530;2023-02-05T12:20:29;11.22;66.44
73133;DHT22;61320;52.008;4.530;2023-02-05T12:26:25;11.22;65.64
73133;DHT22;61320;52.008;4.530;2023-02-05T12:32:00;11.29;64.04
73133;DHT22;61320;52.008;4.530;2023-02-05T12:34:44;11.27;64.65
73133;DHT22;61320;52.008;4.530;2023-02-05T12:39:58;11.29;65.14
73133;DHT22;61320;52.008;4.530;2023-02-05T12:42:36;11.35;65.52
73133;DHT22;61320;52.008;4.530;2023-02-05T12:45:32;11.36;64.08
73133;DHT22;61320;52.008;4.530;2023-02-05T12:59:04;11.27;65.07
73133;DHT22;61320;52.008;4.530;2023-02-05T13:01:42;11.30;65.07
73133;DHT22;61320;52.008;4.530;2023-02-05T13:04:21;11.30;65.18
73133;DHT22;61320;52.008;4.530;2023-02-05T13:06:58;11.37;64.45
73133;DHT22;61320;52.008;4.530;2023-02-05T13:09:32;11.39;64.32
73133;DHT22;61320;52.008;4.530;2023-02-05T13:12:11;11.35;63.34
73133;DHT22;61320;52.008;4.530;2023-02-05T13:14:41;11.30;63.67
73133;DHT22;61320;52.008;4.530;2023-02-05T13:17:22;11.29;64.39
73133;DHT22;61320;52.008;4.530;2023-02-05T13:19:58;11.32;64.66
73133;DHT22;61320;52.008;4.530;2023-02-05T13:22:30;11.35;63.83
73133;DHT22;61320;52.008;4.530;2023-02-05T13:25:39;11.37;63.41
73133;DHT22;61320;52.008;4.530;2023-02-05T13:28:35;11.36;64.60
73133;DHT22;61320;52.008;4.530;2023-02-05T13:31:29;11.40;63.64
73133;DHT22;61320;52.008;4.530;2023-02-05T13:34:02;11.32;63.33
73133;DHT22;61320;52.008;4.530;2023-02-05T13:47:45;11.25;63.61
73133;DHT22;61320;52.008;4.530;2023-02-05T13:53:10;11.29;64.45
73133;DHT22;61320;52.008;4.530;2023-02-05T13:58:17;11.40;64.70
73133;DHT22;61320;52.008;4.530;2023-02-05T14:00:55;11.42;63.41
73133;DHT22;61320;52.008;4.530;2023-02-05T14:04:22;11.35;63.31
73133;DHT22;61320;52.008;4.530;2023-02-05T14:06:42;11.29;63.85
73133;DHT22;61320;52.008;4.530;2023-02-05T14:09:32;11.29;64.19
73133;DHT22;61320;52.008;4.530;2023-02-05T14:12:00;11.22;65.03
73133;DHT22;61320;52.008;4.530;2023-02-05T14:14:35;11.18;66.90
73133;DHT22;61320;52.008;4.530;2023-02-05T14:19:54;11.06;67.51
73133;DHT22;61320;52.008;4.530;2023-02-05T14:22:42;11.02;67.25
73133;DHT22;61320;52.008;4.530;2023-02-05T14:33:35;11.23;68.86
73133;DHT22;61320;52.008;4.530;2023-02-05T14:38:58;11.20;68.01
73133;DHT22;61320;52.008;4.530;2023-02-05T14:44:23;11.16;69.15
73133;DHT22;61320;52.008;4.530;2023-02-05T14:47:06;11.16;68.51
73133;DHT22;61320;52.008;4.530;2023-02-05T14:52:00;11.05;68.01
73133;DHT22;61320;52.008;4.530;2023-02-05T14:57:54;10.99;68.85
73133;DHT22;61320;52.008;4.530;2023-02-05T15:00:36;11.02;68.80
73133;DHT22;61320;52.008;4.530;2023-02-05T15:11:06;11.02;69.45
73133;DHT22;61320;52.008;4.530;2023-02-05T15:13:33;11.01;69.48
73133;DHT22;61320;52.008;4.530;2023-02-05T15:18:37;10.96;68.32
73133;DHT22;61320;52.008;4.530;2023-02-05T15:21:04;10.91;69.26
73133;DHT22;61320;52.008;4.530;2023-02-05T15:23:44;10.91;70.20
73133;DHT22;61320;52.008;4.530;2023-02-05T15:26:35;10.88;70.03
73133;DHT22;61320;52.008;4.530;2023-02-05T15:32:01;10.85;69.78
73133;DHT22;61320;52.008;4.530;2023-02-05T15:42:16;10.78;70.25
73133;DHT22;61320;52.008;4.530;2023-02-05T15:44:42;10.69;68.59
73133;DHT22;61320;52.008;4.530;2023-02-05T15:47:17;10.61;68.40
73133;DHT22;61320;52.008;4.530;2023-02-05T15:49:46;10.41;67.24
73133;DHT22;61320;52.008;4.530;2023-02-05T15:52:18;10.30;67.17
73133;DHT22;61320;52.008;4.530;2023-02-05T15:54:44;10.20;66.86
73133;DHT22;61320;52.008;4.530;2023-02-05T15:57:22;10.02;65.99
73133;DHT22;61320;52.008;4.530;2023-02-05T15:59:51;9.90;66.99
73133;DHT22;61320;52.008;4.530;2023-02-05T16:02:23;9.81;67.63
73133;DHT22;61320;52.008;4.530;2023-02-05T16:05:13;9.75;67.34
73133;DHT22;61320;52.008;4.530;2023-02-05T16:07:42;9.65;67.72
73133;DHT22;61320;52.008;4.530;2023-02-05T16:10:17;9.58;68.44
73133;DHT22;61320;52.008;4.530;2023-02-05T16:13:16;9.58;68.04
73133;DHT22;61320;52.008;4.530;2023-02-05T16:21:00;9.37;69.50
73133;DHT22;61320;52.008;4.530;2023-02-05T16:23:37;9.34;69.74
73133;DHT22;61320;52.008;4.530;2023-02-05T16:26:14;9.26;69.92
73133;DHT22;61320;52.008;4.530;2023-02-05T16:28:57;9.21;69.51
73133;DHT22;61320;52.008;4.530;2023-02-05T16:31:27;9.13;69.74
73133;DHT22;61320;52.008;4.530;2023-02-05T16:34:03;9.07;70.35
73133;DHT22;61320;52.008;4.530;2023-02-05T16:36:38;9.00;70.18
73133;DHT22;61320;52.008;4.530;2023-02-05T16:39:19;9.00;70.55
73133;DHT22;61320;52.008;4.530;2023-02-05T16:42:00;8.96;70.85
73133;DHT22;61320;52.008;4.530;2023-02-05T16:44:31;8.91;70.91
73133;DHT22;61320;52.008;4.530;2023-02-05T16:47:23;8.87;70.98
73133;DHT22;61320;52.008;4.530;2023-02-05T16:49:49;8.79;71.24
73133;DHT22;61320;52.008;4.530;2023-02-05T16:52:28;8.77;71.15
73133;DHT22;61320;52.008;4.530;2023-02-05T16:54:56;8.70;71.45
73133;DHT22;61320;52.008;4.530;2023-02-05T16:57:34;8.68;71.68
73133;DHT22;61320;52.008;4.530;2023-02-05T17:00:16;8.68;71.91
73133;DHT22;61320;52.008;4.530;2023-02-05T17:02:43;8.58;72.05
73133;DHT22;61320;52.008;4.530;2023-02-05T17:05:33;8.62;72.10
73133;DHT22;61320;52.008;4.530;2023-02-05T17:08:10;8.56;72.07
73133;DHT22;61320;52.008;4.530;2023-02-05T17:13:45;8.50;72.70
73133;DHT22;61320;52.008;4.530;2023-02-05T17:16:46;8.50;72.76
73133;DHT22;61320;52.008;4.530;2023-02-05T17:19:30;8.46;72.20
73133;DHT22;61320;52.008;4.530;2023-02-05T17:24:40;8.45;72.90
73133;DHT22;61320;52.008;4.530;2023-02-05T17:27:27;8.41;73.09
73133;DHT22;61320;52.008;4.530;2023-02-05T17:29:55;8.38;73.33
73133;DHT22;61320;52.008;4.530;2023-02-05T17:32:22;8.37;73.58
73133;DHT22;61320;52.008;4.530;2023-02-05T17:34:48;8.38;73.78
73133;DHT22;61320;52.008;4.530;2023-02-05T17:37:14;8.37;73.69
73133;DHT22;61320;52.008;4.530;2023-02-05T17:39:39;8.38;73.98
73133;DHT22;61320;52.008;4.530;2023-02-05T17:42:30;8.35;74.21
73133;DHT22;61320;52.008;4.530;2023-02-05T17:44:58;8.38;74.11
73133;DHT22;61320;52.008;4.530;2023-02-05T17:47:24;8.39;74.41
73133;DHT22;61320;52.008;4.530;2023-02-05T17:49:50;8.41;74.39
73133;DHT22;61320;52.008;4.530;2023-02-05T17:52:28;8.44;74.58
73133;DHT22;61320;52.008;4.530;2023-02-05T17:54:57;8.42;74.42
73133;DHT22;61320;52.008;4.530;2023-02-05T17:57:31;8.42;74.30
73133;DHT22;61320;52.008;4.530;2023-02-05T18:03:26;8.42;74.37
73133;DHT22;61320;52.008;4.530;2023-02-05T18:06:01;8.38;74.05
73133;DHT22;61320;52.008;4.530;2023-02-05T18:08:35;8.38;74.13
73133;DHT22;61320;52.008;4.530;2023-02-05T18:11:11;8.35;74.09
73133;DHT22;61320;52.008;4.530;2023-02-05T18:13:49;8.32;74.27
73133;DHT22;61320;52.008;4.530;2023-02-05T18:16:20;8.31;74.26
73133;DHT22;61320;52.008;4.530;2023-02-05T18:18:46;8.29;73.94
73133;DHT22;61320;52.008;4.530;2023-02-05T18:24:06;8.24;74.21
73133;DHT22;61320;52.008;4.530;2023-02-05T18:26:32;8.21;74.22
73133;DHT22;61320;52.008;4.530;2023-02-05T18:28:58;8.20;74.34
73133;DHT22;61320;52.008;4.530;2023-02-05T18:31:23;8.18;74.31
73133;DHT22;61320;52.008;4.530;2023-02-05T18:33:55;8.18;74.23
73133;DHT22;61320;52.008;4.530;2023-02-05T18:36:27;8.14;74.33
73133;DHT22;61320;52.008;4.530;2023-02-05T18:38:57;8.14;74.43
73133;DHT22;61320;52.008;4.530;2023-02-05T18:41:26;8.10;74.38
73133;DHT22;61320;52.008;4.530;2023-02-05T18:43:58;8.08;74.39
73133;DHT22;61320;52.008;4.530;2023-02-05T18:46:24;8.07;74.61